KAVK

Alva Regional Airport

Alva, Oklahoma, USA
METAR KAVK 191515Z AUTO 19011KT 10SM CLR 02/M07 A2992 RMK AO2
Observed Flight Rules
Jan-19 @ 15:15 UTC (15 minutes ago) Visual Flight Rules
Wind Visibility Clouds
190° at 11 knots 10 miles
  • Clear skies
Temperatures Readings
Current 2°C / 36°F
Dewpoint -7°C / 19°F
Humidity 52%
Altimeter 29.92" Hg
Pressure 1013 hPa
Elevation 449
METAR KAVK 191515Z AUTO 19011KT 10SM CLR 02/M07 A2992 RMK AO2
Observed Flight Rules
Jan-19 @ 15:15 UTC
(15 minutes ago)
VFR
Wind Visibility
190° at 11 knots 10 miles
Clouds
  • Clear skies
Temperature Dewpoint
2°C / 36°F -7°C / 19°F
Humidity Altimeter Pressure
52% 29.92" Hg 1013 hPa